sensor_id;sensor_type;location;lat;lon;timestamp;P1;durP1;ratioP1;P2;durP2;ratioP2
21168;SDS011;10742;51.816;8.662;2024-01-27T00:00:19;23.07;;;4.87;;
21168;SDS011;10742;51.816;8.662;2024-01-27T00:03:40;21.93;;;5.73;;
21168;SDS011;10742;51.816;8.662;2024-01-27T00:07:02;21.67;;;4.23;;
21168;SDS011;10742;51.816;8.662;2024-01-27T00:10:23;19.33;;;3.60;;
21168;SDS011;10742;51.816;8.662;2024-01-27T00:13:44;21.93;;;4.20;;
21168;SDS011;10742;51.816;8.662;2024-01-27T00:17:06;17.07;;;3.40;;
21168;SDS011;10742;51.816;8.662;2024-01-27T00:20:27;16.67;;;3.43;;
21168;SDS011;10742;51.816;8.662;2024-01-27T00:23:48;14.30;;;3.00;;
21168;SDS011;10742;51.816;8.662;2024-01-27T00:27:09;22.67;;;3.53;;
21168;SDS011;10742;51.816;8.662;2024-01-27T00:30:30;14.07;;;2.60;;
21168;SDS011;10742;51.816;8.662;2024-01-27T00:33:52;16.67;;;3.37;;
21168;SDS011;10742;51.816;8.662;2024-01-27T00:37:12;18.17;;;2.87;;
21168;SDS011;10742;51.816;8.662;2024-01-27T00:40:33;18.97;;;2.83;;
21168;SDS011;10742;51.816;8.662;2024-01-27T00:43:54;22.07;;;4.00;;
21168;SDS011;10742;51.816;8.662;2024-01-27T00:47:15;14.50;;;3.00;;
21168;SDS011;10742;51.816;8.662;2024-01-27T00:50:36;18.93;;;3.10;;
21168;SDS011;10742;51.816;8.662;2024-01-27T00:53:58;17.20;;;3.30;;
21168;SDS011;10742;51.816;8.662;2024-01-27T00:57:19;23.03;;;3.20;;
21168;SDS011;10742;51.816;8.662;2024-01-27T01:00:40;27.57;;;3.73;;
21168;SDS011;10742;51.816;8.662;2024-01-27T01:04:02;21.63;;;3.07;;
21168;SDS011;10742;51.816;8.662;2024-01-27T01:07:23;16.57;;;3.30;;
21168;SDS011;10742;51.816;8.662;2024-01-27T01:10:44;16.83;;;3.07;;
21168;SDS011;10742;51.816;8.662;2024-01-27T01:14:05;22.77;;;3.10;;
21168;SDS011;10742;51.816;8.662;2024-01-27T01:17:26;16.37;;;3.20;;
21168;SDS011;10742;51.816;8.662;2024-01-27T01:20:47;26.37;;;3.87;;
21168;SDS011;10742;51.816;8.662;2024-01-27T01:24:08;17.43;;;2.87;;
21168;SDS011;10742;51.816;8.662;2024-01-27T01:27:29;24.87;;;3.77;;
21168;SDS011;10742;51.816;8.662;2024-01-27T01:30:51;19.77;;;4.20;;
21168;SDS011;10742;51.816;8.662;2024-01-27T01:34:12;17.07;;;2.83;;
21168;SDS011;10742;51.816;8.662;2024-01-27T01:37:33;18.97;;;3.30;;
21168;SDS011;10742;51.816;8.662;2024-01-27T01:40:54;20.33;;;3.10;;
21168;SDS011;10742;51.816;8.662;2024-01-27T01:44:15;18.47;;;3.30;;
21168;SDS011;10742;51.816;8.662;2024-01-27T01:47:36;17.03;;;3.30;;
21168;SDS011;10742;51.816;8.662;2024-01-27T01:50:57;18.70;;;3.03;;
21168;SDS011;10742;51.816;8.662;2024-01-27T01:54:20;22.13;;;3.07;;
21168;SDS011;10742;51.816;8.662;2024-01-27T01:57:43;17.63;;;2.90;;
21168;SDS011;10742;51.816;8.662;2024-01-27T02:01:05;19.77;;;3.53;;
21168;SDS011;10742;51.816;8.662;2024-01-27T02:04:26;18.80;;;3.60;;
21168;SDS011;10742;51.816;8.662;2024-01-27T02:07:47;14.33;;;3.77;;
21168;SDS011;10742;51.816;8.662;2024-01-27T02:11:08;16.70;;;2.90;;
21168;SDS011;10742;51.816;8.662;2024-01-27T02:14:29;18.17;;;3.37;;
21168;SDS011;10742;51.816;8.662;2024-01-27T02:17:51;14.00;;;3.23;;
21168;SDS011;10742;51.816;8.662;2024-01-27T02:21:12;17.70;;;3.33;;
21168;SDS011;10742;51.816;8.662;2024-01-27T02:24:35;19.40;;;3.57;;
21168;SDS011;10742;51.816;8.662;2024-01-27T02:27:56;16.80;;;3.37;;
21168;SDS011;10742;51.816;8.662;2024-01-27T02:31:17;22.63;;;3.67;;
21168;SDS011;10742;51.816;8.662;2024-01-27T02:34:37;21.30;;;3.70;;
21168;SDS011;10742;51.816;8.662;2024-01-27T02:37:58;12.10;;;3.27;;
21168;SDS011;10742;51.816;8.662;2024-01-27T02:41:20;23.53;;;3.97;;
21168;SDS011;10742;51.816;8.662;2024-01-27T02:44:49;17.80;;;3.60;;
21168;SDS011;10742;51.816;8.662;2024-01-27T02:48:10;20.77;;;4.03;;
21168;SDS011;10742;51.816;8.662;2024-01-27T02:51:31;20.87;;;4.17;;
21168;SDS011;10742;51.816;8.662;2024-01-27T02:54:52;23.00;;;4.70;;
21168;SDS011;10742;51.816;8.662;2024-01-27T02:58:13;16.27;;;3.50;;
21168;SDS011;10742;51.816;8.662;2024-01-27T03:01:35;17.87;;;3.97;;
21168;SDS011;10742;51.816;8.662;2024-01-27T03:04:56;20.40;;;5.00;;
21168;SDS011;10742;51.816;8.662;2024-01-27T03:08:17;15.70;;;3.80;;
21168;SDS011;10742;51.816;8.662;2024-01-27T03:11:38;20.43;;;3.80;;
21168;SDS011;10742;51.816;8.662;2024-01-27T03:14:59;19.43;;;3.97;;
21168;SDS011;10742;51.816;8.662;2024-01-27T03:18:20;21.03;;;3.90;;
21168;SDS011;10742;51.816;8.662;2024-01-27T03:21:41;23.23;;;4.13;;
21168;SDS011;10742;51.816;8.662;2024-01-27T03:25:02;20.47;;;4.00;;
21168;SDS011;10742;51.816;8.662;2024-01-27T03:28:23;18.17;;;3.87;;
21168;SDS011;10742;51.816;8.662;2024-01-27T03:31:44;17.10;;;4.03;;
21168;SDS011;10742;51.816;8.662;2024-01-27T03:35:05;23.50;;;3.93;;
21168;SDS011;10742;51.816;8.662;2024-01-27T03:38:27;21.30;;;3.97;;
21168;SDS011;10742;51.816;8.662;2024-01-27T03:41:48;16.97;;;3.90;;
21168;SDS011;10742;51.816;8.662;2024-01-27T03:45:09;18.97;;;4.33;;
21168;SDS011;10742;51.816;8.662;2024-01-27T03:48:30;16.47;;;3.73;;
21168;SDS011;10742;51.816;8.662;2024-01-27T03:51:52;20.03;;;4.20;;
21168;SDS011;10742;51.816;8.662;2024-01-27T03:55:12;18.70;;;3.60;;
21168;SDS011;10742;51.816;8.662;2024-01-27T03:58:33;23.70;;;4.33;;
21168;SDS011;10742;51.816;8.662;2024-01-27T04:01:55;17.60;;;4.00;;
21168;SDS011;10742;51.816;8.662;2024-01-27T04:05:16;19.07;;;4.33;;
21168;SDS011;10742;51.816;8.662;2024-01-27T04:08:36;25.00;;;4.63;;
21168;SDS011;10742;51.816;8.662;2024-01-27T04:11:57;17.87;;;4.30;;
21168;SDS011;10742;51.816;8.662;2024-01-27T04:15:18;20.73;;;4.17;;
21168;SDS011;10742;51.816;8.662;2024-01-27T04:18:39;22.40;;;5.03;;
21168;SDS011;10742;51.816;8.662;2024-01-27T04:22:01;22.03;;;4.37;;
21168;SDS011;10742;51.816;8.662;2024-01-27T04:25:23;19.30;;;4.30;;
21168;SDS011;10742;51.816;8.662;2024-01-27T04:28:44;17.10;;;4.03;;
21168;SDS011;10742;51.816;8.662;2024-01-27T04:32:05;15.77;;;4.20;;
21168;SDS011;10742;51.816;8.662;2024-01-27T04:35:26;20.00;;;4.17;;
21168;SDS011;10742;51.816;8.662;2024-01-27T04:38:47;16.80;;;4.57;;
21168;SDS011;10742;51.816;8.662;2024-01-27T04:42:08;21.27;;;5.73;;
21168;SDS011;10742;51.816;8.662;2024-01-27T04:45:30;19.77;;;4.43;;
21168;SDS011;10742;51.816;8.662;2024-01-27T04:48:51;17.30;;;3.80;;
21168;SDS011;10742;51.816;8.662;2024-01-27T04:52:12;17.07;;;4.30;;
21168;SDS011;10742;51.816;8.662;2024-01-27T04:55:33;20.70;;;4.37;;
21168;SDS011;10742;51.816;8.662;2024-01-27T04:58:54;18.63;;;4.27;;
21168;SDS011;10742;51.816;8.662;2024-01-27T05:02:14;19.33;;;4.50;;
21168;SDS011;10742;51.816;8.662;2024-01-27T05:05:35;21.93;;;4.50;;
21168;SDS011;10742;51.816;8.662;2024-01-27T05:08:56;18.47;;;4.07;;
21168;SDS011;10742;51.816;8.662;2024-01-27T05:12:17;19.60;;;4.73;;
21168;SDS011;10742;51.816;8.662;2024-01-27T05:15:38;17.40;;;4.23;;
21168;SDS011;10742;51.816;8.662;2024-01-27T05:18:59;16.33;;;4.33;;
21168;SDS011;10742;51.816;8.662;2024-01-27T05:22:20;21.80;;;4.80;;
21168;SDS011;10742;51.816;8.662;2024-01-27T05:25:41;21.83;;;5.13;;
21168;SDS011;10742;51.816;8.662;2024-01-27T05:29:02;13.10;;;4.10;;
21168;SDS011;10742;51.816;8.662;2024-01-27T05:32:23;16.83;;;4.90;;
21168;SDS011;10742;51.816;8.662;2024-01-27T05:35:44;19.23;;;4.10;;
21168;SDS011;10742;51.816;8.662;2024-01-27T05:39:05;16.83;;;4.10;;
21168;SDS011;10742;51.816;8.662;2024-01-27T05:42:27;18.80;;;4.07;;
21168;SDS011;10742;51.816;8.662;2024-01-27T05:45:48;19.67;;;4.60;;
21168;SDS011;10742;51.816;8.662;2024-01-27T05:49:09;17.27;;;4.27;;
21168;SDS011;10742;51.816;8.662;2024-01-27T05:52:30;29.13;;;6.07;;
21168;SDS011;10742;51.816;8.662;2024-01-27T05:55:51;15.63;;;4.50;;
21168;SDS011;10742;51.816;8.662;2024-01-27T05:59:14;18.97;;;4.73;;
21168;SDS011;10742;51.816;8.662;2024-01-27T06:02:35;16.13;;;4.63;;
21168;SDS011;10742;51.816;8.662;2024-01-27T06:05:59;15.83;;;4.10;;
21168;SDS011;10742;51.816;8.662;2024-01-27T06:09:22;22.20;;;4.80;;
21168;SDS011;10742;51.816;8.662;2024-01-27T06:12:43;18.00;;;4.47;;
21168;SDS011;10742;51.816;8.662;2024-01-27T06:16:07;14.00;;;4.23;;
21168;SDS011;10742;51.816;8.662;2024-01-27T06:19:32;15.37;;;4.70;;
21168;SDS011;10742;51.816;8.662;2024-01-27T06:22:53;25.97;;;4.83;;
21168;SDS011;10742;51.816;8.662;2024-01-27T06:26:14;19.67;;;4.23;;
21168;SDS011;10742;51.816;8.662;2024-01-27T06:29:35;12.93;;;3.87;;
21168;SDS011;10742;51.816;8.662;2024-01-27T06:32:56;16.33;;;4.90;;
21168;SDS011;10742;51.816;8.662;2024-01-27T06:36:17;18.93;;;4.30;;
21168;SDS011;10742;51.816;8.662;2024-01-27T06:39:38;17.70;;;4.77;;
21168;SDS011;10742;51.816;8.662;2024-01-27T06:42:59;22.33;;;4.57;;
21168;SDS011;10742;51.816;8.662;2024-01-27T06:46:21;15.00;;;3.97;;
21168;SDS011;10742;51.816;8.662;2024-01-27T06:49:42;17.13;;;4.30;;
21168;SDS011;10742;51.816;8.662;2024-01-27T06:53:03;17.30;;;5.07;;
21168;SDS011;10742;51.816;8.662;2024-01-27T06:56:24;12.40;;;4.03;;
21168;SDS011;10742;51.816;8.662;2024-01-27T06:59:46;16.17;;;4.43;;
21168;SDS011;10742;51.816;8.662;2024-01-27T07:03:12;21.73;;;4.30;;
21168;SDS011;10742;51.816;8.662;2024-01-27T07:06:33;15.83;;;4.47;;
21168;SDS011;10742;51.816;8.662;2024-01-27T07:09:54;19.30;;;4.27;;
21168;SDS011;10742;51.816;8.662;2024-01-27T07:13:16;19.70;;;4.83;;
21168;SDS011;10742;51.816;8.662;2024-01-27T07:16:37;20.27;;;5.00;;
21168;SDS011;10742;51.816;8.662;2024-01-27T07:19:58;16.00;;;4.73;;
21168;SDS011;10742;51.816;8.662;2024-01-27T07:23:19;17.50;;;5.10;;
21168;SDS011;10742;51.816;8.662;2024-01-27T07:26:40;17.57;;;5.20;;
21168;SDS011;10742;51.816;8.662;2024-01-27T07:30:02;14.40;;;5.33;;
21168;SDS011;10742;51.816;8.662;2024-01-27T07:33:24;17.63;;;4.97;;
21168;SDS011;10742;51.816;8.662;2024-01-27T07:36:46;20.83;;;5.83;;
21168;SDS011;10742;51.816;8.662;2024-01-27T07:40:08;21.23;;;5.67;;
21168;SDS011;10742;51.816;8.662;2024-01-27T07:43:30;23.10;;;5.40;;
21168;SDS011;10742;51.816;8.662;2024-01-27T07:46:51;20.17;;;5.17;;
21168;SDS011;10742;51.816;8.662;2024-01-27T07:50:12;16.73;;;4.67;;
21168;SDS011;10742;51.816;8.662;2024-01-27T07:53:34;17.37;;;5.27;;
21168;SDS011;10742;51.816;8.662;2024-01-27T07:56:55;16.60;;;4.73;;
21168;SDS011;10742;51.816;8.662;2024-01-27T08:00:16;16.63;;;5.10;;
21168;SDS011;10742;51.816;8.662;2024-01-27T08:03:37;19.97;;;5.07;;
21168;SDS011;10742;51.816;8.662;2024-01-27T08:06:59;23.57;;;4.80;;
21168;SDS011;10742;51.816;8.662;2024-01-27T08:10:21;23.27;;;6.47;;
21168;SDS011;10742;51.816;8.662;2024-01-27T08:13:43;23.47;;;6.23;;
21168;SDS011;10742;51.816;8.662;2024-01-27T08:17:04;28.40;;;7.60;;
21168;SDS011;10742;51.816;8.662;2024-01-27T08:20:26;29.10;;;6.83;;
21168;SDS011;10742;51.816;8.662;2024-01-27T08:23:47;25.30;;;7.83;;
21168;SDS011;10742;51.816;8.662;2024-01-27T08:27:07;24.13;;;7.97;;
21168;SDS011;10742;51.816;8.662;2024-01-27T08:30:29;25.07;;;8.53;;
21168;SDS011;10742;51.816;8.662;2024-01-27T08:33:50;31.60;;;8.73;;
21168;SDS011;10742;51.816;8.662;2024-01-27T08:37:17;28.93;;;9.03;;
21168;SDS011;10742;51.816;8.662;2024-01-27T08:40:39;28.70;;;9.30;;
21168;SDS011;10742;51.816;8.662;2024-01-27T08:44:01;30.53;;;8.40;;
21168;SDS011;10742;51.816;8.662;2024-01-27T08:47:22;33.10;;;9.80;;
21168;SDS011;10742;51.816;8.662;2024-01-27T08:50:43;42.80;;;15.80;;
21168;SDS011;10742;51.816;8.662;2024-01-27T08:54:04;31.60;;;10.90;;
21168;SDS011;10742;51.816;8.662;2024-01-27T08:57:25;25.83;;;9.20;;
21168;SDS011;10742;51.816;8.662;2024-01-27T09:00:46;29.03;;;8.07;;
21168;SDS011;10742;51.816;8.662;2024-01-27T09:04:07;22.97;;;7.40;;
21168;SDS011;10742;51.816;8.662;2024-01-27T09:07:29;23.47;;;7.00;;
21168;SDS011;10742;51.816;8.662;2024-01-27T09:10:50;17.23;;;5.77;;
21168;SDS011;10742;51.816;8.662;2024-01-27T09:14:12;27.00;;;7.20;;
21168;SDS011;10742;51.816;8.662;2024-01-27T09:17:33;24.00;;;5.47;;
21168;SDS011;10742;51.816;8.662;2024-01-27T09:20:54;22.53;;;5.37;;
21168;SDS011;10742;51.816;8.662;2024-01-27T09:24:15;20.93;;;5.27;;
21168;SDS011;10742;51.816;8.662;2024-01-27T09:27:36;18.83;;;5.03;;
21168;SDS011;10742;51.816;8.662;2024-01-27T09:30:57;18.87;;;4.97;;
21168;SDS011;10742;51.816;8.662;2024-01-27T09:34:18;19.17;;;4.43;;
21168;SDS011;10742;51.816;8.662;2024-01-27T09:37:39;16.90;;;5.33;;
21168;SDS011;10742;51.816;8.662;2024-01-27T09:41:00;16.40;;;4.67;;
21168;SDS011;10742;51.816;8.662;2024-01-27T09:44:21;18.57;;;5.50;;
21168;SDS011;10742;51.816;8.662;2024-01-27T09:47:44;18.37;;;4.37;;
21168;SDS011;10742;51.816;8.662;2024-01-27T09:51:07;21.60;;;4.80;;
21168;SDS011;10742;51.816;8.662;2024-01-27T09:54:30;18.90;;;4.70;;
21168;SDS011;10742;51.816;8.662;2024-01-27T09:57:50;16.47;;;4.40;;
21168;SDS011;10742;51.816;8.662;2024-01-27T10:01:12;16.77;;;3.77;;
21168;SDS011;10742;51.816;8.662;2024-01-27T10:04:38;20.77;;;4.07;;
21168;SDS011;10742;51.816;8.662;2024-01-27T10:08:01;21.23;;;4.50;;
21168;SDS011;10742;51.816;8.662;2024-01-27T10:11:26;20.53;;;3.87;;
21168;SDS011;10742;51.816;8.662;2024-01-27T10:14:49;17.30;;;4.30;;
21168;SDS011;10742;51.816;8.662;2024-01-27T10:18:11;20.43;;;3.93;;
21168;SDS011;10742;51.816;8.662;2024-01-27T10:21:36;16.67;;;4.10;;
21168;SDS011;10742;51.816;8.662;2024-01-27T10:24:56;18.50;;;4.43;;
21168;SDS011;10742;51.816;8.662;2024-01-27T10:28:18;32.60;;;5.30;;
21168;SDS011;10742;51.816;8.662;2024-01-27T10:31:40;26.60;;;4.83;;
21168;SDS011;10742;51.816;8.662;2024-01-27T10:35:10;21.07;;;4.60;;
21168;SDS011;10742;51.816;8.662;2024-01-27T10:38:35;20.93;;;4.37;;
21168;SDS011;10742;51.816;8.662;2024-01-27T10:41:56;21.70;;;4.80;;
21168;SDS011;10742;51.816;8.662;2024-01-27T10:45:23;18.40;;;4.37;;
21168;SDS011;10742;51.816;8.662;2024-01-27T10:48:44;19.17;;;4.50;;
21168;SDS011;10742;51.816;8.662;2024-01-27T10:52:13;20.90;;;4.87;;
21168;SDS011;10742;51.816;8.662;2024-01-27T10:55:38;21.43;;;4.80;;
21168;SDS011;10742;51.816;8.662;2024-01-27T10:59:02;22.07;;;4.30;;
21168;SDS011;10742;51.816;8.662;2024-01-27T11:02:27;19.40;;;4.30;;
21168;SDS011;10742;51.816;8.662;2024-01-27T11:05:52;18.13;;;4.17;;
21168;SDS011;10742;51.816;8.662;2024-01-27T11:09:16;21.27;;;4.37;;
21168;SDS011;10742;51.816;8.662;2024-01-27T11:12:39;19.57;;;4.07;;
21168;SDS011;10742;51.816;8.662;2024-01-27T11:16:00;20.40;;;3.70;;
21168;SDS011;10742;51.816;8.662;2024-01-27T11:19:21;18.53;;;4.20;;
21168;SDS011;10742;51.816;8.662;2024-01-27T11:22:42;19.40;;;4.40;;
21168;SDS011;10742;51.816;8.662;2024-01-27T11:26:07;20.53;;;4.00;;
21168;SDS011;10742;51.816;8.662;2024-01-27T11:29:30;13.73;;;3.57;;
21168;SDS011;10742;51.816;8.662;2024-01-27T11:32:56;17.97;;;3.63;;
21168;SDS011;10742;51.816;8.662;2024-01-27T11:36:23;11.33;;;3.40;;
21168;SDS011;10742;51.816;8.662;2024-01-27T11:39:45;18.70;;;4.10;;
21168;SDS011;10742;51.816;8.662;2024-01-27T11:43:07;17.90;;;4.27;;
21168;SDS011;10742;51.816;8.662;2024-01-27T11:46:34;21.27;;;4.30;;
21168;SDS011;10742;51.816;8.662;2024-01-27T11:49:56;15.27;;;3.60;;
21168;SDS011;10742;51.816;8.662;2024-01-27T11:53:19;14.37;;;3.20;;
21168;SDS011;10742;51.816;8.662;2024-01-27T11:56:40;16.43;;;3.60;;
21168;SDS011;10742;51.816;8.662;2024-01-27T12:00:01;19.00;;;4.20;;
21168;SDS011;10742;51.816;8.662;2024-01-27T12:03:26;16.23;;;4.13;;
21168;SDS011;10742;51.816;8.662;2024-01-27T12:06:48;16.97;;;3.97;;
21168;SDS011;10742;51.816;8.662;2024-01-27T12:10:09;20.60;;;4.30;;
21168;SDS011;10742;51.816;8.662;2024-01-27T12:13:31;20.17;;;3.80;;
21168;SDS011;10742;51.816;8.662;2024-01-27T12:16:52;16.03;;;3.43;;
21168;SDS011;10742;51.816;8.662;2024-01-27T12:20:14;20.60;;;3.40;;
21168;SDS011;10742;51.816;8.662;2024-01-27T12:23:48;16.53;;;3.30;;
21168;SDS011;10742;51.816;8.662;2024-01-27T12:27:16;22.30;;;3.37;;
21168;SDS011;10742;51.816;8.662;2024-01-27T12:30:38;18.27;;;3.50;;
21168;SDS011;10742;51.816;8.662;2024-01-27T12:33:59;19.63;;;4.13;;
21168;SDS011;10742;51.816;8.662;2024-01-27T12:37:21;17.47;;;3.50;;
21168;SDS011;10742;51.816;8.662;2024-01-27T12:40:43;14.33;;;3.80;;
21168;SDS011;10742;51.816;8.662;2024-01-27T12:44:04;18.57;;;3.50;;
21168;SDS011;10742;51.816;8.662;2024-01-27T12:47:26;14.80;;;3.43;;
21168;SDS011;10742;51.816;8.662;2024-01-27T12:50:48;18.37;;;3.43;;
21168;SDS011;10742;51.816;8.662;2024-01-27T12:54:08;15.43;;;3.13;;
21168;SDS011;10742;51.816;8.662;2024-01-27T12:57:29;17.23;;;3.30;;
21168;SDS011;10742;51.816;8.662;2024-01-27T13:00:50;16.50;;;3.50;;
21168;SDS011;10742;51.816;8.662;2024-01-27T13:04:12;15.37;;;2.90;;
21168;SDS011;10742;51.816;8.662;2024-01-27T13:07:33;19.43;;;3.20;;
21168;SDS011;10742;51.816;8.662;2024-01-27T13:10:55;14.13;;;3.10;;
21168;SDS011;10742;51.816;8.662;2024-01-27T13:14:16;16.47;;;2.80;;
21168;SDS011;10742;51.816;8.662;2024-01-27T13:17:39;13.90;;;2.77;;
21168;SDS011;10742;51.816;8.662;2024-01-27T13:21:02;12.03;;;3.10;;
21168;SDS011;10742;51.816;8.662;2024-01-27T13:24:25;14.27;;;3.00;;
21168;SDS011;10742;51.816;8.662;2024-01-27T13:27:46;15.27;;;3.10;;
21168;SDS011;10742;51.816;8.662;2024-01-27T13:31:07;13.83;;;3.00;;
21168;SDS011;10742;51.816;8.662;2024-01-27T13:34:28;14.07;;;2.97;;
21168;SDS011;10742;51.816;8.662;2024-01-27T13:37:51;19.53;;;3.40;;
21168;SDS011;10742;51.816;8.662;2024-01-27T13:41:12;19.93;;;3.17;;
21168;SDS011;10742;51.816;8.662;2024-01-27T13:44:33;19.33;;;3.40;;
21168;SDS011;10742;51.816;8.662;2024-01-27T13:47:58;16.83;;;3.27;;
21168;SDS011;10742;51.816;8.662;2024-01-27T13:51:19;17.13;;;3.17;;
21168;SDS011;10742;51.816;8.662;2024-01-27T13:54:40;23.47;;;3.60;;
21168;SDS011;10742;51.816;8.662;2024-01-27T13:58:01;19.17;;;3.67;;
21168;SDS011;10742;51.816;8.662;2024-01-27T14:01:22;12.77;;;3.33;;
21168;SDS011;10742;51.816;8.662;2024-01-27T14:04:43;17.97;;;3.40;;
21168;SDS011;10742;51.816;8.662;2024-01-27T14:08:04;17.37;;;3.53;;
21168;SDS011;10742;51.816;8.662;2024-01-27T14:11:28;17.13;;;2.90;;
21168;SDS011;10742;51.816;8.662;2024-01-27T14:14:49;22.70;;;3.80;;
21168;SDS011;10742;51.816;8.662;2024-01-27T14:18:11;11.53;;;3.13;;
21168;SDS011;10742;51.816;8.662;2024-01-27T14:21:41;16.60;;;3.30;;
21168;SDS011;10742;51.816;8.662;2024-01-27T14:25:02;11.83;;;3.40;;
21168;SDS011;10742;51.816;8.662;2024-01-27T14:28:23;16.93;;;3.70;;
21168;SDS011;10742;51.816;8.662;2024-01-27T14:31:45;13.93;;;3.23;;
21168;SDS011;10742;51.816;8.662;2024-01-27T14:35:07;18.23;;;3.53;;
21168;SDS011;10742;51.816;8.662;2024-01-27T14:38:28;16.37;;;3.50;;
21168;SDS011;10742;51.816;8.662;2024-01-27T14:41:49;19.33;;;4.13;;
21168;SDS011;10742;51.816;8.662;2024-01-27T14:45:10;19.97;;;3.83;;
21168;SDS011;10742;51.816;8.662;2024-01-27T14:48:31;18.57;;;3.60;;
21168;SDS011;10742;51.816;8.662;2024-01-27T14:51:52;23.43;;;4.87;;
21168;SDS011;10742;51.816;8.662;2024-01-27T14:55:14;17.93;;;3.30;;
21168;SDS011;10742;51.816;8.662;2024-01-27T14:58:36;17.20;;;3.37;;
21168;SDS011;10742;51.816;8.662;2024-01-27T15:01:57;14.07;;;3.13;;
21168;SDS011;10742;51.816;8.662;2024-01-27T15:05:18;15.23;;;3.50;;
21168;SDS011;10742;51.816;8.662;2024-01-27T15:08:39;13.43;;;3.13;;
21168;SDS011;10742;51.816;8.662;2024-01-27T15:12:02;18.87;;;3.70;;
21168;SDS011;10742;51.816;8.662;2024-01-27T15:15:27;16.83;;;3.13;;
21168;SDS011;10742;51.816;8.662;2024-01-27T15:18:48;14.17;;;3.20;;
21168;SDS011;10742;51.816;8.662;2024-01-27T15:22:10;19.80;;;6.00;;
21168;SDS011;10742;51.816;8.662;2024-01-27T15:25:31;19.53;;;5.40;;
21168;SDS011;10742;51.816;8.662;2024-01-27T15:28:53;18.43;;;4.10;;
21168;SDS011;10742;51.816;8.662;2024-01-27T15:32:14;17.97;;;3.70;;
21168;SDS011;10742;51.816;8.662;2024-01-27T15:35:41;23.57;;;6.87;;
21168;SDS011;10742;51.816;8.662;2024-01-27T15:39:02;20.70;;;4.83;;
21168;SDS011;10742;51.816;8.662;2024-01-27T15:42:23;14.37;;;4.20;;
21168;SDS011;10742;51.816;8.662;2024-01-27T15:45:44;17.67;;;3.70;;
21168;SDS011;10742;51.816;8.662;2024-01-27T15:49:05;12.93;;;4.00;;
21168;SDS011;10742;51.816;8.662;2024-01-27T15:52:27;40.77;;;13.80;;
21168;SDS011;10742;51.816;8.662;2024-01-27T15:55:48;33.90;;;11.43;;
21168;SDS011;10742;51.816;8.662;2024-01-27T15:59:10;26.93;;;8.00;;
21168;SDS011;10742;51.816;8.662;2024-01-27T16:02:31;16.40;;;5.10;;
21168;SDS011;10742;51.816;8.662;2024-01-27T16:05:52;17.57;;;4.23;;
21168;SDS011;10742;51.816;8.662;2024-01-27T16:09:13;15.60;;;3.80;;
21168;SDS011;10742;51.816;8.662;2024-01-27T16:12:34;14.43;;;3.20;;
21168;SDS011;10742;51.816;8.662;2024-01-27T16:15:56;9.97;;;2.63;;
21168;SDS011;10742;51.816;8.662;2024-01-27T16:19:17;16.13;;;3.53;;
21168;SDS011;10742;51.816;8.662;2024-01-27T16:22:38;24.30;;;7.47;;
21168;SDS011;10742;51.816;8.662;2024-01-27T16:25:59;29.73;;;7.43;;
21168;SDS011;10742;51.816;8.662;2024-01-27T16:29:20;22.33;;;4.40;;
21168;SDS011;10742;51.816;8.662;2024-01-27T16:32:42;19.13;;;3.80;;
21168;SDS011;10742;51.816;8.662;2024-01-27T16:36:03;16.50;;;3.60;;
21168;SDS011;10742;51.816;8.662;2024-01-27T16:39:25;19.50;;;5.47;;
21168;SDS011;10742;51.816;8.662;2024-01-27T16:42:46;34.23;;;8.53;;
21168;SDS011;10742;51.816;8.662;2024-01-27T16:46:07;23.93;;;6.00;;
21168;SDS011;10742;51.816;8.662;2024-01-27T16:49:29;24.00;;;5.10;;
21168;SDS011;10742;51.816;8.662;2024-01-27T16:52:50;33.53;;;12.07;;
21168;SDS011;10742;51.816;8.662;2024-01-27T16:56:11;29.20;;;9.77;;
21168;SDS011;10742;51.816;8.662;2024-01-27T16:59:33;24.40;;;7.67;;
21168;SDS011;10742;51.816;8.662;2024-01-27T17:02:54;19.07;;;6.17;;
21168;SDS011;10742;51.816;8.662;2024-01-27T17:06:15;18.03;;;4.50;;
21168;SDS011;10742;51.816;8.662;2024-01-27T17:09:36;15.07;;;3.80;;
21168;SDS011;10742;51.816;8.662;2024-01-27T17:12:58;19.60;;;3.60;;
21168;SDS011;10742;51.816;8.662;2024-01-27T17:16:19;15.03;;;3.97;;
21168;SDS011;10742;51.816;8.662;2024-01-27T17:19:40;20.37;;;4.57;;
21168;SDS011;10742;51.816;8.662;2024-01-27T17:23:01;19.63;;;5.83;;
21168;SDS011;10742;51.816;8.662;2024-01-27T17:26:22;17.63;;;5.77;;
21168;SDS011;10742;51.816;8.662;2024-01-27T17:29:45;19.93;;;6.33;;
21168;SDS011;10742;51.816;8.662;2024-01-27T17:33:07;20.10;;;6.03;;
21168;SDS011;10742;51.816;8.662;2024-01-27T17:36:28;26.10;;;6.57;;
21168;SDS011;10742;51.816;8.662;2024-01-27T17:39:49;22.43;;;6.73;;
21168;SDS011;10742;51.816;8.662;2024-01-27T17:43:10;24.03;;;7.70;;
21168;SDS011;10742;51.816;8.662;2024-01-27T17:46:31;18.57;;;6.10;;
21168;SDS011;10742;51.816;8.662;2024-01-27T17:49:52;21.90;;;6.47;;
21168;SDS011;10742;51.816;8.662;2024-01-27T17:53:13;20.53;;;5.83;;
21168;SDS011;10742;51.816;8.662;2024-01-27T17:56:36;23.07;;;5.87;;
21168;SDS011;10742;51.816;8.662;2024-01-27T17:59:57;22.67;;;5.27;;
21168;SDS011;10742;51.816;8.662;2024-01-27T18:03:18;18.10;;;5.33;;
21168;SDS011;10742;51.816;8.662;2024-01-27T18:06:40;17.93;;;4.63;;
21168;SDS011;10742;51.816;8.662;2024-01-27T18:10:01;24.02;;;6.65;;
21168;SDS011;10742;51.816;8.662;2024-01-27T18:13:22;19.57;;;5.30;;
21168;SDS011;10742;51.816;8.662;2024-01-27T18:16:43;16.90;;;5.27;;
21168;SDS011;10742;51.816;8.662;2024-01-27T18:20:04;22.33;;;4.97;;
21168;SDS011;10742;51.816;8.662;2024-01-27T18:23:26;18.73;;;5.37;;
21168;SDS011;10742;51.816;8.662;2024-01-27T18:26:47;20.50;;;7.07;;
21168;SDS011;10742;51.816;8.662;2024-01-27T18:30:09;22.87;;;7.33;;
21168;SDS011;10742;51.816;8.662;2024-01-27T18:33:31;25.90;;;8.40;;
21168;SDS011;10742;51.816;8.662;2024-01-27T18:36:52;29.80;;;9.63;;
21168;SDS011;10742;51.816;8.662;2024-01-27T18:40:14;42.00;;;13.37;;
21168;SDS011;10742;51.816;8.662;2024-01-27T18:43:35;46.33;;;16.97;;
21168;SDS011;10742;51.816;8.662;2024-01-27T18:46:56;33.77;;;13.87;;
21168;SDS011;10742;51.816;8.662;2024-01-27T18:50:17;28.60;;;12.30;;
21168;SDS011;10742;51.816;8.662;2024-01-27T18:53:38;30.00;;;10.47;;
21168;SDS011;10742;51.816;8.662;2024-01-27T18:56:59;33.77;;;9.90;;
21168;SDS011;10742;51.816;8.662;2024-01-27T19:00:21;22.13;;;6.77;;
21168;SDS011;10742;51.816;8.662;2024-01-27T19:03:43;26.20;;;8.37;;
21168;SDS011;10742;51.816;8.662;2024-01-27T19:07:04;25.60;;;9.00;;
21168;SDS011;10742;51.816;8.662;2024-01-27T19:10:25;29.70;;;8.80;;
21168;SDS011;10742;51.816;8.662;2024-01-27T19:13:46;31.67;;;8.80;;
21168;SDS011;10742;51.816;8.662;2024-01-27T19:17:07;25.77;;;7.53;;
21168;SDS011;10742;51.816;8.662;2024-01-27T19:20:28;25.13;;;7.30;;
21168;SDS011;10742;51.816;8.662;2024-01-27T19:23:49;22.13;;;5.23;;
21168;SDS011;10742;51.816;8.662;2024-01-27T19:27:10;15.80;;;4.83;;
21168;SDS011;10742;51.816;8.662;2024-01-27T19:30:31;19.10;;;5.00;;
21168;SDS011;10742;51.816;8.662;2024-01-27T19:33:52;19.97;;;5.07;;
21168;SDS011;10742;51.816;8.662;2024-01-27T19:37:13;18.77;;;4.13;;
21168;SDS011;10742;51.816;8.662;2024-01-27T19:40:34;18.67;;;5.10;;
21168;SDS011;10742;51.816;8.662;2024-01-27T19:43:56;21.53;;;6.57;;
21168;SDS011;10742;51.816;8.662;2024-01-27T19:47:17;25.37;;;6.63;;
21168;SDS011;10742;51.816;8.662;2024-01-27T19:50:38;18.17;;;5.73;;
21168;SDS011;10742;51.816;8.662;2024-01-27T19:53:59;25.87;;;7.43;;